Skip Navigation LinksHome page > Weather > Current weather Skip Navigation Links

Current Weather

Indira Gandhi Intl Apt, New Delhi, India

For information only: do not use for flight planning or navigation.
Latest weather
Observation time Saturday, November 22, 2014 7:00 PM IST
Local time Saturday, November 22, 2014 7:26 PM IST
Flight conditions Instrument Meteorological Conditions
Winds
Wind speed calm
Visibility 1.1 mi.
Present weather smoke
Sky condition
Ceiling unlimited
Temperature 68°F
Dewpoint 46°F
Altimeter 29.91 in.Hg
Derived measurements
Relative humidity 46%
Density altitude 1513 ft.
METAR VIDP 221330Z 00000KT 1700 R28/P2000 R29/P2000 FU NSC 20/08 Q1013 BECMG 1500

Settings

Location code

InnerDrive.Weather 4.0.5399.0 Release CLR 4.0.30319.34014
Copyright ©2014 Inner Drive Technology. All rights reserved. Portions Copyright ©1986-2014 David Braverman.

Find weather

Site navigation


Skip Navigation Links

Place info

Page info

PayPal - The safer, easier way to pay online!

Return home.

Copyright ©2014 Inner Drive Technology. Purveyors of fine, hand-crafted computer software. Page printed 2014-11-22T13:56:48 UTC.